sensor_id;sensor_type;location;lat;lon;timestamp;temperature;humidity
52481;DHT22;38393;52.404;13.532;2024-02-23T00:00:34;10.20;99.90
52481;DHT22;38393;52.404;13.532;2024-02-23T00:03:00;10.10;99.90
52481;DHT22;38393;52.404;13.532;2024-02-23T00:05:25;10.20;99.90
52481;DHT22;38393;52.404;13.532;2024-02-23T00:07:51;10.10;99.90
52481;DHT22;38393;52.404;13.532;2024-02-23T00:10:16;10.20;99.90
52481;DHT22;38393;52.404;13.532;2024-02-23T00:12:42;10.20;99.90
52481;DHT22;38393;52.404;13.532;2024-02-23T00:15:09;10.10;99.90
52481;DHT22;38393;52.404;13.532;2024-02-23T00:17:35;10.20;99.90
52481;DHT22;38393;52.404;13.532;2024-02-23T00:20:00;10.20;99.90
52481;DHT22;38393;52.404;13.532;2024-02-23T00:22:26;10.20;99.90
52481;DHT22;38393;52.404;13.532;2024-02-23T00:24:51;10.20;99.90
52481;DHT22;38393;52.404;13.532;2024-02-23T00:27:17;10.10;99.90
52481;DHT22;38393;52.404;13.532;2024-02-23T00:29:42;10.10;99.90
52481;DHT22;38393;52.404;13.532;2024-02-23T00:32:07;10.10;99.90
52481;DHT22;38393;52.404;13.532;2024-02-23T00:34:33;10.10;99.90
52481;DHT22;38393;52.404;13.532;2024-02-23T00:36:59;10.00;99.90
52481;DHT22;38393;52.404;13.532;2024-02-23T00:39:24;10.00;99.90
52481;DHT22;38393;52.404;13.532;2024-02-23T00:41:50;10.10;99.90
52481;DHT22;38393;52.404;13.532;2024-02-23T00:44:15;10.10;99.90
52481;DHT22;38393;52.404;13.532;2024-02-23T00:46:41;10.10;99.90
52481;DHT22;38393;52.404;13.532;2024-02-23T00:49:07;10.10;99.90
52481;DHT22;38393;52.404;13.532;2024-02-23T00:51:32;10.00;99.90
52481;DHT22;38393;52.404;13.532;2024-02-23T00:53:58;10.10;99.90
52481;DHT22;38393;52.404;13.532;2024-02-23T00:56:23;10.00;99.90
52481;DHT22;38393;52.404;13.532;2024-02-23T00:58:49;10.10;99.90
52481;DHT22;38393;52.404;13.532;2024-02-23T01:01:14;10.00;99.90
52481;DHT22;38393;52.404;13.532;2024-02-23T01:03:40;10.10;99.90
52481;DHT22;38393;52.404;13.532;2024-02-23T01:06:05;10.10;99.90
52481;DHT22;38393;52.404;13.532;2024-02-23T01:08:31;10.20;99.90
52481;DHT22;38393;52.404;13.532;2024-02-23T01:10:57;10.20;99.90
52481;DHT22;38393;52.404;13.532;2024-02-23T01:13:22;10.40;99.90
52481;DHT22;38393;52.404;13.532;2024-02-23T01:15:48;10.50;99.90
52481;DHT22;38393;52.404;13.532;2024-02-23T01:18:13;10.70;99.90
52481;DHT22;38393;52.404;13.532;2024-02-23T01:20:39;10.80;99.90
52481;DHT22;38393;52.404;13.532;2024-02-23T01:23:05;10.80;99.90
52481;DHT22;38393;52.404;13.532;2024-02-23T01:25:30;10.80;99.90
52481;DHT22;38393;52.404;13.532;2024-02-23T01:27:56;10.80;99.90
52481;DHT22;38393;52.404;13.532;2024-02-23T01:30:21;10.80;99.90
52481;DHT22;38393;52.404;13.532;2024-02-23T01:32:46;10.80;99.90
52481;DHT22;38393;52.404;13.532;2024-02-23T01:35:12;11.00;99.90
52481;DHT22;38393;52.404;13.532;2024-02-23T01:37:38;11.10;99.90
52481;DHT22;38393;52.404;13.532;2024-02-23T01:40:03;11.20;99.90
52481;DHT22;38393;52.404;13.532;2024-02-23T01:42:29;11.10;99.90
52481;DHT22;38393;52.404;13.532;2024-02-23T01:44:55;11.10;99.90
52481;DHT22;38393;52.404;13.532;2024-02-23T01:47:27;11.10;99.90
52481;DHT22;38393;52.404;13.532;2024-02-23T01:49:54;11.20;99.90
52481;DHT22;38393;52.404;13.532;2024-02-23T01:52:21;11.20;99.90
52481;DHT22;38393;52.404;13.532;2024-02-23T01:54:46;11.30;99.90
52481;DHT22;38393;52.404;13.532;2024-02-23T01:57:12;11.30;99.90
52481;DHT22;38393;52.404;13.532;2024-02-23T01:59:39;11.30;99.90
52481;DHT22;38393;52.404;13.532;2024-02-23T02:02:05;11.30;99.90
52481;DHT22;38393;52.404;13.532;2024-02-23T02:04:31;11.30;99.90
52481;DHT22;38393;52.404;13.532;2024-02-23T02:06:57;11.30;99.90
52481;DHT22;38393;52.404;13.532;2024-02-23T02:09:23;11.40;99.90
52481;DHT22;38393;52.404;13.532;2024-02-23T02:11:49;11.50;99.90
52481;DHT22;38393;52.404;13.532;2024-02-23T02:14:15;11.60;99.90
52481;DHT22;38393;52.404;13.532;2024-02-23T02:16:41;11.60;99.90
52481;DHT22;38393;52.404;13.532;2024-02-23T02:19:06;11.50;99.90
52481;DHT22;38393;52.404;13.532;2024-02-23T02:21:32;11.50;99.90
52481;DHT22;38393;52.404;13.532;2024-02-23T02:23:58;11.50;99.20
52481;DHT22;38393;52.404;13.532;2024-02-23T02:26:24;11.30;93.90
52481;DHT22;38393;52.404;13.532;2024-02-23T02:28:49;11.20;92.90
52481;DHT22;38393;52.404;13.532;2024-02-23T02:31:15;11.10;91.60
52481;DHT22;38393;52.404;13.532;2024-02-23T02:33:41;11.00;90.10
52481;DHT22;38393;52.404;13.532;2024-02-23T02:36:07;10.90;90.20
52481;DHT22;38393;52.404;13.532;2024-02-23T02:38:32;10.80;91.00
52481;DHT22;38393;52.404;13.532;2024-02-23T02:40:59;10.70;91.40
52481;DHT22;38393;52.404;13.532;2024-02-23T02:43:26;10.60;91.40
52481;DHT22;38393;52.404;13.532;2024-02-23T02:45:52;10.70;91.20
52481;DHT22;38393;52.404;13.532;2024-02-23T02:48:17;10.50;91.50
52481;DHT22;38393;52.404;13.532;2024-02-23T02:50:43;10.60;91.20
52481;DHT22;38393;52.404;13.532;2024-02-23T02:53:09;10.60;91.10
52481;DHT22;38393;52.404;13.532;2024-02-23T02:55:35;10.50;90.50
52481;DHT22;38393;52.404;13.532;2024-02-23T02:58:01;10.70;88.90
52481;DHT22;38393;52.404;13.532;2024-02-23T03:00:27;10.60;89.60
52481;DHT22;38393;52.404;13.532;2024-02-23T03:02:53;10.50;89.90
52481;DHT22;38393;52.404;13.532;2024-02-23T03:05:18;10.50;88.70
52481;DHT22;38393;52.404;13.532;2024-02-23T03:07:44;10.50;90.30
52481;DHT22;38393;52.404;13.532;2024-02-23T03:10:09;10.30;90.10
52481;DHT22;38393;52.404;13.532;2024-02-23T03:12:35;10.30;90.00
52481;DHT22;38393;52.404;13.532;2024-02-23T03:15:00;10.50;89.20
52481;DHT22;38393;52.404;13.532;2024-02-23T03:17:28;10.40;89.30
52481;DHT22;38393;52.404;13.532;2024-02-23T03:19:53;10.40;88.60
52481;DHT22;38393;52.404;13.532;2024-02-23T03:22:19;10.40;88.20
52481;DHT22;38393;52.404;13.532;2024-02-23T03:24:44;10.30;89.10
52481;DHT22;38393;52.404;13.532;2024-02-23T03:27:10;10.30;88.70
52481;DHT22;38393;52.404;13.532;2024-02-23T03:29:35;10.40;86.90
52481;DHT22;38393;52.404;13.532;2024-02-23T03:32:00;10.30;89.00
52481;DHT22;38393;52.404;13.532;2024-02-23T03:34:26;10.30;88.00
52481;DHT22;38393;52.404;13.532;2024-02-23T03:36:52;10.40;87.30
52481;DHT22;38393;52.404;13.532;2024-02-23T03:39:18;10.20;88.70
52481;DHT22;38393;52.404;13.532;2024-02-23T03:41:43;10.30;87.10
52481;DHT22;38393;52.404;13.532;2024-02-23T03:44:09;10.20;89.40
52481;DHT22;38393;52.404;13.532;2024-02-23T03:46:35;10.10;89.40
52481;DHT22;38393;52.404;13.532;2024-02-23T03:49:00;10.00;89.50
52481;DHT22;38393;52.404;13.532;2024-02-23T03:51:26;10.00;89.70
52481;DHT22;38393;52.404;13.532;2024-02-23T03:53:51;10.00;90.00
52481;DHT22;38393;52.404;13.532;2024-02-23T03:56:17;9.90;90.10
52481;DHT22;38393;52.404;13.532;2024-02-23T03:58:42;9.90;90.60
52481;DHT22;38393;52.404;13.532;2024-02-23T04:01:08;9.80;90.30
52481;DHT22;38393;52.404;13.532;2024-02-23T04:03:34;9.80;90.40
52481;DHT22;38393;52.404;13.532;2024-02-23T04:06:00;10.00;89.20
52481;DHT22;38393;52.404;13.532;2024-02-23T04:08:26;10.00;87.60
52481;DHT22;38393;52.404;13.532;2024-02-23T04:10:51;9.90;88.60
52481;DHT22;38393;52.404;13.532;2024-02-23T04:13:17;10.00;88.70
52481;DHT22;38393;52.404;13.532;2024-02-23T04:15:43;9.80;89.40
52481;DHT22;38393;52.404;13.532;2024-02-23T04:18:09;9.80;88.80
52481;DHT22;38393;52.404;13.532;2024-02-23T04:20:34;9.80;87.80
52481;DHT22;38393;52.404;13.532;2024-02-23T04:23:00;9.60;89.50
52481;DHT22;38393;52.404;13.532;2024-02-23T04:25:25;9.80;86.40
52481;DHT22;38393;52.404;13.532;2024-02-23T04:27:51;9.70;86.90
52481;DHT22;38393;52.404;13.532;2024-02-23T04:30:16;9.70;87.80
52481;DHT22;38393;52.404;13.532;2024-02-23T04:32:42;9.70;87.00
52481;DHT22;38393;52.404;13.532;2024-02-23T04:35:09;9.70;86.10
52481;DHT22;38393;52.404;13.532;2024-02-23T04:37:35;9.60;86.80
52481;DHT22;38393;52.404;13.532;2024-02-23T04:40:00;9.50;86.90
52481;DHT22;38393;52.404;13.532;2024-02-23T04:42:26;9.40;87.10
52481;DHT22;38393;52.404;13.532;2024-02-23T04:44:53;9.40;86.80
52481;DHT22;38393;52.404;13.532;2024-02-23T04:47:20;9.40;86.20
52481;DHT22;38393;52.404;13.532;2024-02-23T04:49:45;9.30;86.20
52481;DHT22;38393;52.404;13.532;2024-02-23T04:52:11;9.30;86.70
52481;DHT22;38393;52.404;13.532;2024-02-23T04:54:37;9.20;87.20
52481;DHT22;38393;52.404;13.532;2024-02-23T04:57:02;9.20;86.70
52481;DHT22;38393;52.404;13.532;2024-02-23T04:59:28;9.20;86.40
52481;DHT22;38393;52.404;13.532;2024-02-23T05:01:55;9.10;85.80
52481;DHT22;38393;52.404;13.532;2024-02-23T05:04:20;9.10;85.30
52481;DHT22;38393;52.404;13.532;2024-02-23T05:06:46;9.20;85.60
52481;DHT22;38393;52.404;13.532;2024-02-23T05:09:11;8.90;85.90
52481;DHT22;38393;52.404;13.532;2024-02-23T05:11:37;8.90;86.20
52481;DHT22;38393;52.404;13.532;2024-02-23T05:14:03;8.90;85.60
52481;DHT22;38393;52.404;13.532;2024-02-23T05:16:28;8.80;86.30
52481;DHT22;38393;52.404;13.532;2024-02-23T05:18:53;8.90;84.80
52481;DHT22;38393;52.404;13.532;2024-02-23T05:21:19;8.90;85.60
52481;DHT22;38393;52.404;13.532;2024-02-23T05:23:45;8.90;85.20
52481;DHT22;38393;52.404;13.532;2024-02-23T05:26:11;8.80;85.40
52481;DHT22;38393;52.404;13.532;2024-02-23T05:28:37;8.80;85.20
52481;DHT22;38393;52.404;13.532;2024-02-23T05:31:03;8.80;85.10
52481;DHT22;38393;52.404;13.532;2024-02-23T05:33:30;8.80;84.70
52481;DHT22;38393;52.404;13.532;2024-02-23T05:35:55;8.80;84.50
52481;DHT22;38393;52.404;13.532;2024-02-23T05:38:21;8.60;85.90
52481;DHT22;38393;52.404;13.532;2024-02-23T05:40:46;8.70;86.40
52481;DHT22;38393;52.404;13.532;2024-02-23T05:43:13;8.50;87.60
52481;DHT22;38393;52.404;13.532;2024-02-23T05:45:39;8.60;88.20
52481;DHT22;38393;52.404;13.532;2024-02-23T05:48:04;8.40;88.20
52481;DHT22;38393;52.404;13.532;2024-02-23T05:50:30;8.30;89.10
52481;DHT22;38393;52.404;13.532;2024-02-23T05:52:56;8.20;87.50
52481;DHT22;38393;52.404;13.532;2024-02-23T05:55:22;8.20;86.80
52481;DHT22;38393;52.404;13.532;2024-02-23T05:57:47;8.20;86.70
52481;DHT22;38393;52.404;13.532;2024-02-23T06:00:13;8.00;87.30
52481;DHT22;38393;52.404;13.532;2024-02-23T06:02:40;8.00;86.60
52481;DHT22;38393;52.404;13.532;2024-02-23T06:05:05;8.00;85.80
52481;DHT22;38393;52.404;13.532;2024-02-23T06:07:33;8.10;85.20
52481;DHT22;38393;52.404;13.532;2024-02-23T06:10:00;8.00;85.40
52481;DHT22;38393;52.404;13.532;2024-02-23T06:12:26;8.00;85.60
52481;DHT22;38393;52.404;13.532;2024-02-23T06:14:52;7.90;85.20
52481;DHT22;38393;52.404;13.532;2024-02-23T06:17:18;8.00;85.00
52481;DHT22;38393;52.404;13.532;2024-02-23T06:19:43;8.10;83.20
52481;DHT22;38393;52.404;13.532;2024-02-23T06:22:09;8.10;82.80
52481;DHT22;38393;52.404;13.532;2024-02-23T06:24:36;8.10;83.40
52481;DHT22;38393;52.404;13.532;2024-02-23T06:27:01;8.00;84.80
52481;DHT22;38393;52.404;13.532;2024-02-23T06:29:28;7.90;85.90
52481;DHT22;38393;52.404;13.532;2024-02-23T06:31:54;7.80;87.30
52481;DHT22;38393;52.404;13.532;2024-02-23T06:34:19;7.70;87.30
52481;DHT22;38393;52.404;13.532;2024-02-23T06:36:45;7.70;87.80
52481;DHT22;38393;52.404;13.532;2024-02-23T06:39:10;7.60;89.10
52481;DHT22;38393;52.404;13.532;2024-02-23T06:41:37;7.60;87.50
52481;DHT22;38393;52.404;13.532;2024-02-23T06:44:04;7.80;87.70
52481;DHT22;38393;52.404;13.532;2024-02-23T06:46:29;7.80;87.40
52481;DHT22;38393;52.404;13.532;2024-02-23T06:48:55;7.70;87.90
52481;DHT22;38393;52.404;13.532;2024-02-23T06:51:21;7.80;87.40
52481;DHT22;38393;52.404;13.532;2024-02-23T06:53:46;7.70;88.50
52481;DHT22;38393;52.404;13.532;2024-02-23T06:56:12;7.90;88.00
52481;DHT22;38393;52.404;13.532;2024-02-23T06:58:37;7.80;88.50
52481;DHT22;38393;52.404;13.532;2024-02-23T07:01:04;7.80;89.20
52481;DHT22;38393;52.404;13.532;2024-02-23T07:03:31;7.70;90.00
52481;DHT22;38393;52.404;13.532;2024-02-23T07:05:57;7.60;90.60
52481;DHT22;38393;52.404;13.532;2024-02-23T07:08:22;7.70;90.20
52481;DHT22;38393;52.404;13.532;2024-02-23T07:10:48;7.70;90.70
52481;DHT22;38393;52.404;13.532;2024-02-23T07:13:13;7.70;90.90
52481;DHT22;38393;52.404;13.532;2024-02-23T07:15:39;7.80;90.70
52481;DHT22;38393;52.404;13.532;2024-02-23T07:18:05;7.90;90.80
52481;DHT22;38393;52.404;13.532;2024-02-23T07:20:30;7.90;90.70
52481;DHT22;38393;52.404;13.532;2024-02-23T07:22:56;7.90;91.50
52481;DHT22;38393;52.404;13.532;2024-02-23T07:25:21;7.80;91.80
52481;DHT22;38393;52.404;13.532;2024-02-23T07:27:47;7.80;91.60
52481;DHT22;38393;52.404;13.532;2024-02-23T07:30:16;7.80;92.10
52481;DHT22;38393;52.404;13.532;2024-02-23T07:32:42;7.90;93.10
52481;DHT22;38393;52.404;13.532;2024-02-23T07:35:08;7.90;93.20
52481;DHT22;38393;52.404;13.532;2024-02-23T07:37:34;7.90;92.80
52481;DHT22;38393;52.404;13.532;2024-02-23T07:39:59;7.80;92.80
52481;DHT22;38393;52.404;13.532;2024-02-23T07:42:25;7.70;93.10
52481;DHT22;38393;52.404;13.532;2024-02-23T07:44:51;7.80;93.30
52481;DHT22;38393;52.404;13.532;2024-02-23T07:47:16;7.70;93.00
52481;DHT22;38393;52.404;13.532;2024-02-23T07:49:42;7.80;92.80
52481;DHT22;38393;52.404;13.532;2024-02-23T07:52:08;7.80;93.40
52481;DHT22;38393;52.404;13.532;2024-02-23T07:54:33;7.80;93.80
52481;DHT22;38393;52.404;13.532;2024-02-23T07:56:59;7.90;93.20
52481;DHT22;38393;52.404;13.532;2024-02-23T07:59:24;8.00;92.90
52481;DHT22;38393;52.404;13.532;2024-02-23T08:01:50;7.90;93.10
52481;DHT22;38393;52.404;13.532;2024-02-23T08:04:16;7.90;92.80
52481;DHT22;38393;52.404;13.532;2024-02-23T08:06:41;8.00;92.30
52481;DHT22;38393;52.404;13.532;2024-02-23T08:09:08;8.10;92.10
52481;DHT22;38393;52.404;13.532;2024-02-23T08:11:34;8.20;91.40
52481;DHT22;38393;52.404;13.532;2024-02-23T08:13:59;8.20;91.10
52481;DHT22;38393;52.404;13.532;2024-02-23T08:16:25;8.30;91.20
52481;DHT22;38393;52.404;13.532;2024-02-23T08:18:50;8.30;90.80
52481;DHT22;38393;52.404;13.532;2024-02-23T08:21:15;8.30;91.10
52481;DHT22;38393;52.404;13.532;2024-02-23T08:23:41;8.30;91.00
52481;DHT22;38393;52.404;13.532;2024-02-23T08:26:06;8.40;91.00
52481;DHT22;38393;52.404;13.532;2024-02-23T08:28:32;8.50;90.80
52481;DHT22;38393;52.404;13.532;2024-02-23T08:30:57;8.50;90.50
52481;DHT22;38393;52.404;13.532;2024-02-23T08:33:23;8.60;90.70
52481;DHT22;38393;52.404;13.532;2024-02-23T08:35:48;8.50;90.80
52481;DHT22;38393;52.404;13.532;2024-02-23T08:38:14;8.60;90.30
52481;DHT22;38393;52.404;13.532;2024-02-23T08:40:39;8.60;90.00
52481;DHT22;38393;52.404;13.532;2024-02-23T08:43:05;8.70;90.20
52481;DHT22;38393;52.404;13.532;2024-02-23T08:45:31;8.50;90.40
52481;DHT22;38393;52.404;13.532;2024-02-23T08:47:56;8.70;90.80
52481;DHT22;38393;52.404;13.532;2024-02-23T08:50:22;8.80;91.00
52481;DHT22;38393;52.404;13.532;2024-02-23T08:52:47;8.70;90.40
52481;DHT22;38393;52.404;13.532;2024-02-23T08:55:14;8.80;91.00
52481;DHT22;38393;52.404;13.532;2024-02-23T08:57:40;8.80;91.60
52481;DHT22;38393;52.404;13.532;2024-02-23T09:00:05;8.80;92.00
52481;DHT22;38393;52.404;13.532;2024-02-23T09:02:31;8.90;92.10
52481;DHT22;38393;52.404;13.532;2024-02-23T09:05:01;8.90;92.20
52481;DHT22;38393;52.404;13.532;2024-02-23T09:07:26;8.80;92.60
52481;DHT22;38393;52.404;13.532;2024-02-23T09:09:52;8.90;92.50
52481;DHT22;38393;52.404;13.532;2024-02-23T09:12:18;8.90;92.10
52481;DHT22;38393;52.404;13.532;2024-02-23T09:14:43;9.00;91.50
52481;DHT22;38393;52.404;13.532;2024-02-23T09:17:09;8.80;91.20
52481;DHT22;38393;52.404;13.532;2024-02-23T09:19:36;9.10;91.30
52481;DHT22;38393;52.404;13.532;2024-02-23T09:22:02;9.00;90.40
52481;DHT22;38393;52.404;13.532;2024-02-23T09:24:28;9.10;86.70
52481;DHT22;38393;52.404;13.532;2024-02-23T09:26:53;9.20;88.20
52481;DHT22;38393;52.404;13.532;2024-02-23T09:29:19;9.10;88.20
52481;DHT22;38393;52.404;13.532;2024-02-23T09:31:44;9.00;82.80
52481;DHT22;38393;52.404;13.532;2024-02-23T09:34:10;9.10;84.00
52481;DHT22;38393;52.404;13.532;2024-02-23T09:36:36;9.20;83.40
52481;DHT22;38393;52.404;13.532;2024-02-23T09:39:01;9.20;85.20
52481;DHT22;38393;52.404;13.532;2024-02-23T09:41:30;9.40;85.00
52481;DHT22;38393;52.404;13.532;2024-02-23T09:43:58;9.40;83.90
52481;DHT22;38393;52.404;13.532;2024-02-23T09:46:24;9.40;83.30
52481;DHT22;38393;52.404;13.532;2024-02-23T09:48:50;9.30;84.20
52481;DHT22;38393;52.404;13.532;2024-02-23T09:51:16;9.40;85.80
52481;DHT22;38393;52.404;13.532;2024-02-23T09:53:43;9.50;87.80
52481;DHT22;38393;52.404;13.532;2024-02-23T09:56:09;9.50;86.20
52481;DHT22;38393;52.404;13.532;2024-02-23T09:58:39;9.40;82.20
52481;DHT22;38393;52.404;13.532;2024-02-23T10:01:06;9.30;83.10
52481;DHT22;38393;52.404;13.532;2024-02-23T10:03:32;9.40;85.70
52481;DHT22;38393;52.404;13.532;2024-02-23T10:05:57;9.40;88.70
52481;DHT22;38393;52.404;13.532;2024-02-23T10:08:23;9.50;88.90
52481;DHT22;38393;52.404;13.532;2024-02-23T10:10:48;9.70;89.20
52481;DHT22;38393;52.404;13.532;2024-02-23T10:13:18;9.70;88.00
52481;DHT22;38393;52.404;13.532;2024-02-23T10:15:46;9.70;86.50
52481;DHT22;38393;52.404;13.532;2024-02-23T10:18:12;9.50;84.50
52481;DHT22;38393;52.404;13.532;2024-02-23T10:20:37;9.70;87.50
52481;DHT22;38393;52.404;13.532;2024-02-23T10:23:04;9.90;85.40
52481;DHT22;38393;52.404;13.532;2024-02-23T10:25:30;9.80;84.20
52481;DHT22;38393;52.404;13.532;2024-02-23T10:27:55;9.90;82.90
52481;DHT22;38393;52.404;13.532;2024-02-23T10:30:20;10.20;83.10
52481;DHT22;38393;52.404;13.532;2024-02-23T10:32:46;10.00;82.80
52481;DHT22;38393;52.404;13.532;2024-02-23T10:35:15;10.00;81.30
52481;DHT22;38393;52.404;13.532;2024-02-23T10:37:43;9.90;80.10
52481;DHT22;38393;52.404;13.532;2024-02-23T10:40:11;9.70;80.50
52481;DHT22;38393;52.404;13.532;2024-02-23T10:42:38;9.90;82.90
52481;DHT22;38393;52.404;13.532;2024-02-23T10:45:05;9.90;80.10
52481;DHT22;38393;52.404;13.532;2024-02-23T10:47:31;9.90;79.00
52481;DHT22;38393;52.404;13.532;2024-02-23T10:50:00;9.90;77.10
52481;DHT22;38393;52.404;13.532;2024-02-23T10:52:26;10.00;78.60
52481;DHT22;38393;52.404;13.532;2024-02-23T10:54:52;9.80;77.00
52481;DHT22;38393;52.404;13.532;2024-02-23T10:57:18;9.80;78.00
52481;DHT22;38393;52.404;13.532;2024-02-23T10:59:47;9.60;74.60
52481;DHT22;38393;52.404;13.532;2024-02-23T11:02:14;9.60;75.50
52481;DHT22;38393;52.404;13.532;2024-02-23T11:04:46;9.60;77.00
52481;DHT22;38393;52.404;13.532;2024-02-23T11:07:16;9.90;76.80
52481;DHT22;38393;52.404;13.532;2024-02-23T11:09:48;10.00;74.20
52481;DHT22;38393;52.404;13.532;2024-02-23T11:12:22;10.00;74.00
52481;DHT22;38393;52.404;13.532;2024-02-23T11:14:48;10.10;74.00
52481;DHT22;38393;52.404;13.532;2024-02-23T11:17:20;10.00;74.80
52481;DHT22;38393;52.404;13.532;2024-02-23T11:19:48;10.20;76.80
52481;DHT22;38393;52.404;13.532;2024-02-23T11:22:14;10.00;74.80
52481;DHT22;38393;52.404;13.532;2024-02-23T11:24:44;9.90;72.00
52481;DHT22;38393;52.404;13.532;2024-02-23T11:27:15;9.80;72.70
52481;DHT22;38393;52.404;13.532;2024-02-23T11:29:46;9.80;73.90
52481;DHT22;38393;52.404;13.532;2024-02-23T11:32:13;10.10;75.80
52481;DHT22;38393;52.404;13.532;2024-02-23T11:34:39;10.20;72.60
52481;DHT22;38393;52.404;13.532;2024-02-23T11:37:11;10.20;72.80
52481;DHT22;38393;52.404;13.532;2024-02-23T11:39:39;10.10;71.00
52481;DHT22;38393;52.404;13.532;2024-02-23T11:42:06;10.10;73.60
52481;DHT22;38393;52.404;13.532;2024-02-23T11:44:31;10.40;74.10
52481;DHT22;38393;52.404;13.532;2024-02-23T11:46:58;10.30;74.70
52481;DHT22;38393;52.404;13.532;2024-02-23T11:49:28;10.30;74.30
52481;DHT22;38393;52.404;13.532;2024-02-23T11:51:54;10.40;74.20
52481;DHT22;38393;52.404;13.532;2024-02-23T11:54:20;10.40;74.60
52481;DHT22;38393;52.404;13.532;2024-02-23T11:56:47;10.40;74.70
52481;DHT22;38393;52.404;13.532;2024-02-23T11:59:14;10.20;74.10
52481;DHT22;38393;52.404;13.532;2024-02-23T12:01:40;10.30;74.40
52481;DHT22;38393;52.404;13.532;2024-02-23T12:04:05;10.50;75.40
52481;DHT22;38393;52.404;13.532;2024-02-23T12:06:31;10.30;74.80
52481;DHT22;38393;52.404;13.532;2024-02-23T12:08:58;10.30;74.10
52481;DHT22;38393;52.404;13.532;2024-02-23T12:11:23;10.50;75.50
52481;DHT22;38393;52.404;13.532;2024-02-23T12:13:50;10.20;74.00
52481;DHT22;38393;52.404;13.532;2024-02-23T12:16:16;10.20;74.30
52481;DHT22;38393;52.404;13.532;2024-02-23T12:18:42;10.40;77.00
52481;DHT22;38393;52.404;13.532;2024-02-23T12:21:08;10.50;73.70
52481;DHT22;38393;52.404;13.532;2024-02-23T12:23:41;10.50;74.90
52481;DHT22;38393;52.404;13.532;2024-02-23T12:26:07;10.50;74.00
52481;DHT22;38393;52.404;13.532;2024-02-23T12:28:33;10.30;74.90
52481;DHT22;38393;52.404;13.532;2024-02-23T12:31:02;10.40;75.00
52481;DHT22;38393;52.404;13.532;2024-02-23T12:33:32;10.30;73.80
52481;DHT22;38393;52.404;13.532;2024-02-23T12:36:02;10.50;76.10
52481;DHT22;38393;52.404;13.532;2024-02-23T12:38:28;10.70;73.50
52481;DHT22;38393;52.404;13.532;2024-02-23T12:40:54;10.60;74.30
52481;DHT22;38393;52.404;13.532;2024-02-23T12:43:19;10.70;73.50
52481;DHT22;38393;52.404;13.532;2024-02-23T12:45:52;10.60;72.60
52481;DHT22;38393;52.404;13.532;2024-02-23T12:48:18;10.70;73.30
52481;DHT22;38393;52.404;13.532;2024-02-23T12:50:44;10.60;74.00
52481;DHT22;38393;52.404;13.532;2024-02-23T12:55:56;10.50;74.30
52481;DHT22;38393;52.404;13.532;2024-02-23T12:58:21;10.60;73.30
52481;DHT22;38393;52.404;13.532;2024-02-23T13:00:47;10.40;73.80
52481;DHT22;38393;52.404;13.532;2024-02-23T13:03:12;10.40;74.10
52481;DHT22;38393;52.404;13.532;2024-02-23T13:05:38;10.30;72.70
52481;DHT22;38393;52.404;13.532;2024-02-23T13:08:03;10.20;72.50
52481;DHT22;38393;52.404;13.532;2024-02-23T13:10:29;10.30;73.20
52481;DHT22;38393;52.404;13.532;2024-02-23T13:12:54;10.20;73.50
52481;DHT22;38393;52.404;13.532;2024-02-23T13:15:20;10.20;72.80
52481;DHT22;38393;52.404;13.532;2024-02-23T13:17:45;10.30;74.10
52481;DHT22;38393;52.404;13.532;2024-02-23T13:20:11;10.20;73.80
52481;DHT22;38393;52.404;13.532;2024-02-23T13:22:38;10.40;74.30
52481;DHT22;38393;52.404;13.532;2024-02-23T13:25:04;10.40;74.40
52481;DHT22;38393;52.404;13.532;2024-02-23T13:27:29;10.50;75.50
52481;DHT22;38393;52.404;13.532;2024-02-23T13:29:55;10.50;75.50
52481;DHT22;38393;52.404;13.532;2024-02-23T13:32:20;10.50;75.50
52481;DHT22;38393;52.404;13.532;2024-02-23T13:34:46;10.50;74.30
52481;DHT22;38393;52.404;13.532;2024-02-23T13:37:12;10.50;75.00
52481;DHT22;38393;52.404;13.532;2024-02-23T13:39:37;10.50;73.50
52481;DHT22;38393;52.404;13.532;2024-02-23T13:42:03;10.50;73.40
52481;DHT22;38393;52.404;13.532;2024-02-23T13:44:30;10.40;75.00
52481;DHT22;38393;52.404;13.532;2024-02-23T13:46:56;10.40;74.00
52481;DHT22;38393;52.404;13.532;2024-02-23T13:49:22;10.70;75.90
52481;DHT22;38393;52.404;13.532;2024-02-23T13:51:47;10.50;74.80
52481;DHT22;38393;52.404;13.532;2024-02-23T13:54:12;10.50;75.10
52481;DHT22;38393;52.404;13.532;2024-02-23T13:56:38;10.30;73.60
52481;DHT22;38393;52.404;13.532;2024-02-23T13:59:03;10.20;75.90
52481;DHT22;38393;52.404;13.532;2024-02-23T14:01:29;10.30;77.10
52481;DHT22;38393;52.404;13.532;2024-02-23T14:03:54;10.10;75.30
52481;DHT22;38393;52.404;13.532;2024-02-23T14:06:20;10.20;75.90
52481;DHT22;38393;52.404;13.532;2024-02-23T14:08:46;10.10;74.50
52481;DHT22;38393;52.404;13.532;2024-02-23T14:11:13;10.00;75.20
52481;DHT22;38393;52.404;13.532;2024-02-23T14:13:38;10.00;74.40
52481;DHT22;38393;52.404;13.532;2024-02-23T14:16:04;10.00;75.60
52481;DHT22;38393;52.404;13.532;2024-02-23T14:18:31;10.00;75.10
52481;DHT22;38393;52.404;13.532;2024-02-23T14:20:57;10.00;74.50
52481;DHT22;38393;52.404;13.532;2024-02-23T14:23:23;10.10;74.40
52481;DHT22;38393;52.404;13.532;2024-02-23T14:25:48;9.90;75.10
52481;DHT22;38393;52.404;13.532;2024-02-23T14:28:14;9.80;74.70
52481;DHT22;38393;52.404;13.532;2024-02-23T14:30:39;9.70;74.50
52481;DHT22;38393;52.404;13.532;2024-02-23T14:33:08;9.70;74.60
52481;DHT22;38393;52.404;13.532;2024-02-23T14:35:33;9.80;75.20
52481;DHT22;38393;52.404;13.532;2024-02-23T14:37:59;9.60;74.90
52481;DHT22;38393;52.404;13.532;2024-02-23T14:40:24;9.60;75.30
52481;DHT22;38393;52.404;13.532;2024-02-23T14:42:50;9.60;74.70
52481;DHT22;38393;52.404;13.532;2024-02-23T14:45:15;9.60;75.40
52481;DHT22;38393;52.404;13.532;2024-02-23T14:47:42;9.60;74.60
52481;DHT22;38393;52.404;13.532;2024-02-23T14:50:10;9.60;74.20
52481;DHT22;38393;52.404;13.532;2024-02-23T14:52:35;9.50;75.70
52481;DHT22;38393;52.404;13.532;2024-02-23T14:55:01;9.50;75.20
52481;DHT22;38393;52.404;13.532;2024-02-23T14:57:26;9.50;75.50
52481;DHT22;38393;52.404;13.532;2024-02-23T14:59:52;9.40;75.40
52481;DHT22;38393;52.404;13.532;2024-02-23T15:02:21;9.40;75.80
52481;DHT22;38393;52.404;13.532;2024-02-23T15:04:47;9.40;77.10
52481;DHT22;38393;52.404;13.532;2024-02-23T15:07:13;9.40;76.70
52481;DHT22;38393;52.404;13.532;2024-02-23T15:09:39;9.40;76.30
52481;DHT22;38393;52.404;13.532;2024-02-23T15:12:05;9.30;77.30
52481;DHT22;38393;52.404;13.532;2024-02-23T15:14:30;9.30;78.40
52481;DHT22;38393;52.404;13.532;2024-02-23T15:16:56;9.30;77.70